sensor_id;sensor_type;location;lat;lon;timestamp;temperature;humidity
31819;DHT22;18384;48.860;9.188;2023-06-14T00:00:58;18.70;63.30
31819;DHT22;18384;48.860;9.188;2023-06-14T00:03:24;18.70;63.30
31819;DHT22;18384;48.860;9.188;2023-06-14T00:05:51;18.60;63.90
31819;DHT22;18384;48.860;9.188;2023-06-14T00:08:17;18.60;65.30
31819;DHT22;18384;48.860;9.188;2023-06-14T00:10:44;18.60;66.00
31819;DHT22;18384;48.860;9.188;2023-06-14T00:13:11;18.50;64.40
31819;DHT22;18384;48.860;9.188;2023-06-14T00:15:37;18.50;65.10
31819;DHT22;18384;48.860;9.188;2023-06-14T00:18:03;18.50;64.70
31819;DHT22;18384;48.860;9.188;2023-06-14T00:20:30;18.50;64.40
31819;DHT22;18384;48.860;9.188;2023-06-14T00:22:58;18.50;65.50
31819;DHT22;18384;48.860;9.188;2023-06-14T00:25:25;18.50;66.70
31819;DHT22;18384;48.860;9.188;2023-06-14T00:27:51;18.40;67.30
31819;DHT22;18384;48.860;9.188;2023-06-14T00:30:18;18.40;67.60
31819;DHT22;18384;48.860;9.188;2023-06-14T00:32:44;18.40;67.00
31819;DHT22;18384;48.860;9.188;2023-06-14T00:35:10;18.30;67.30
31819;DHT22;18384;48.860;9.188;2023-06-14T00:37:37;18.30;66.00
31819;DHT22;18384;48.860;9.188;2023-06-14T00:40:04;18.30;67.20
31819;DHT22;18384;48.860;9.188;2023-06-14T00:42:30;18.30;68.30
31819;DHT22;18384;48.860;9.188;2023-06-14T00:44:57;18.30;67.20
31819;DHT22;18384;48.860;9.188;2023-06-14T00:47:23;18.20;66.00
31819;DHT22;18384;48.860;9.188;2023-06-14T00:49:49;18.30;65.80
31819;DHT22;18384;48.860;9.188;2023-06-14T00:52:18;18.20;66.10
31819;DHT22;18384;48.860;9.188;2023-06-14T00:54:45;18.20;66.40
31819;DHT22;18384;48.860;9.188;2023-06-14T00:57:12;18.20;65.80
31819;DHT22;18384;48.860;9.188;2023-06-14T00:59:42;18.20;67.40
31819;DHT22;18384;48.860;9.188;2023-06-14T01:02:10;18.10;67.60
31819;DHT22;18384;48.860;9.188;2023-06-14T01:04:36;18.10;68.70
31819;DHT22;18384;48.860;9.188;2023-06-14T01:07:11;18.10;69.40
31819;DHT22;18384;48.860;9.188;2023-06-14T01:12:57;18.00;68.60
31819;DHT22;18384;48.860;9.188;2023-06-14T01:15:27;18.00;68.30
31819;DHT22;18384;48.860;9.188;2023-06-14T01:17:55;18.00;67.40
31819;DHT22;18384;48.860;9.188;2023-06-14T01:20:23;17.90;68.70
31819;DHT22;18384;48.860;9.188;2023-06-14T01:22:55;17.90;68.30
31819;DHT22;18384;48.860;9.188;2023-06-14T01:25:21;17.90;68.70
31819;DHT22;18384;48.860;9.188;2023-06-14T01:27:58;17.80;69.60
31819;DHT22;18384;48.860;9.188;2023-06-14T01:30:25;17.80;69.80
31819;DHT22;18384;48.860;9.188;2023-06-14T01:32:52;17.80;69.50
31819;DHT22;18384;48.860;9.188;2023-06-14T01:35:20;17.80;69.50
31819;DHT22;18384;48.860;9.188;2023-06-14T01:37:47;17.80;70.30
31819;DHT22;18384;48.860;9.188;2023-06-14T01:40:14;17.70;71.00
31819;DHT22;18384;48.860;9.188;2023-06-14T01:42:40;17.70;70.60
31819;DHT22;18384;48.860;9.188;2023-06-14T01:45:07;17.70;70.00
31819;DHT22;18384;48.860;9.188;2023-06-14T01:47:34;17.70;71.00
31819;DHT22;18384;48.860;9.188;2023-06-14T01:50:02;17.60;71.50
31819;DHT22;18384;48.860;9.188;2023-06-14T01:52:28;17.60;71.90
31819;DHT22;18384;48.860;9.188;2023-06-14T01:54:54;17.60;71.60
31819;DHT22;18384;48.860;9.188;2023-06-14T01:57:20;17.60;69.90
31819;DHT22;18384;48.860;9.188;2023-06-14T01:59:47;17.50;69.40
31819;DHT22;18384;48.860;9.188;2023-06-14T02:02:14;17.50;69.10
31819;DHT22;18384;48.860;9.188;2023-06-14T02:04:40;17.50;70.20
31819;DHT22;18384;48.860;9.188;2023-06-14T02:07:06;17.40;69.60
31819;DHT22;18384;48.860;9.188;2023-06-14T02:12:19;17.40;68.90
31819;DHT22;18384;48.860;9.188;2023-06-14T02:14:45;17.40;70.20
31819;DHT22;18384;48.860;9.188;2023-06-14T02:17:11;17.40;70.40
31819;DHT22;18384;48.860;9.188;2023-06-14T02:19:37;17.40;70.50
31819;DHT22;18384;48.860;9.188;2023-06-14T02:22:03;17.40;70.00
31819;DHT22;18384;48.860;9.188;2023-06-14T02:24:29;17.40;72.30
31819;DHT22;18384;48.860;9.188;2023-06-14T02:26:55;17.40;72.40
31819;DHT22;18384;48.860;9.188;2023-06-14T02:29:21;17.30;72.10
31819;DHT22;18384;48.860;9.188;2023-06-14T02:31:47;17.30;71.90
31819;DHT22;18384;48.860;9.188;2023-06-14T02:34:14;17.30;72.00
31819;DHT22;18384;48.860;9.188;2023-06-14T02:36:42;17.30;72.40
31819;DHT22;18384;48.860;9.188;2023-06-14T02:39:11;17.30;72.00
31819;DHT22;18384;48.860;9.188;2023-06-14T02:41:37;17.20;72.10
31819;DHT22;18384;48.860;9.188;2023-06-14T02:44:03;17.20;70.00
31819;DHT22;18384;48.860;9.188;2023-06-14T02:46:29;17.20;70.00
31819;DHT22;18384;48.860;9.188;2023-06-14T02:48:55;17.10;71.00
31819;DHT22;18384;48.860;9.188;2023-06-14T02:51:21;17.10;69.20
31819;DHT22;18384;48.860;9.188;2023-06-14T02:53:47;17.10;69.10
31819;DHT22;18384;48.860;9.188;2023-06-14T02:56:13;17.00;68.90
31819;DHT22;18384;48.860;9.188;2023-06-14T02:58:39;17.00;69.40
31819;DHT22;18384;48.860;9.188;2023-06-14T03:01:06;16.90;69.40
31819;DHT22;18384;48.860;9.188;2023-06-14T03:03:33;17.00;70.40
31819;DHT22;18384;48.860;9.188;2023-06-14T03:05:59;16.90;71.30
31819;DHT22;18384;48.860;9.188;2023-06-14T03:08:30;16.90;70.00
31819;DHT22;18384;48.860;9.188;2023-06-14T03:10:58;16.90;70.30
31819;DHT22;18384;48.860;9.188;2023-06-14T03:13:24;16.90;70.10
31819;DHT22;18384;48.860;9.188;2023-06-14T03:15:50;16.90;70.50
31819;DHT22;18384;48.860;9.188;2023-06-14T03:18:17;16.90;70.80
31819;DHT22;18384;48.860;9.188;2023-06-14T03:20:43;16.90;70.90
31819;DHT22;18384;48.860;9.188;2023-06-14T03:23:11;16.80;72.20
31819;DHT22;18384;48.860;9.188;2023-06-14T03:25:37;16.80;72.00
31819;DHT22;18384;48.860;9.188;2023-06-14T03:28:04;16.80;72.10
31819;DHT22;18384;48.860;9.188;2023-06-14T03:30:31;16.80;71.70
31819;DHT22;18384;48.860;9.188;2023-06-14T03:32:57;16.70;71.60
31819;DHT22;18384;48.860;9.188;2023-06-14T03:35:26;16.70;71.30
31819;DHT22;18384;48.860;9.188;2023-06-14T03:37:53;16.70;72.30
31819;DHT22;18384;48.860;9.188;2023-06-14T03:40:20;16.70;72.30
31819;DHT22;18384;48.860;9.188;2023-06-14T03:42:47;16.70;73.60
31819;DHT22;18384;48.860;9.188;2023-06-14T03:45:13;16.80;73.70
31819;DHT22;18384;48.860;9.188;2023-06-14T03:47:39;16.80;73.40
31819;DHT22;18384;48.860;9.188;2023-06-14T03:50:05;16.80;73.60
31819;DHT22;18384;48.860;9.188;2023-06-14T03:52:31;16.80;74.60
31819;DHT22;18384;48.860;9.188;2023-06-14T03:54:58;16.80;74.20
31819;DHT22;18384;48.860;9.188;2023-06-14T03:57:25;16.80;74.90
31819;DHT22;18384;48.860;9.188;2023-06-14T03:59:51;16.80;74.60
31819;DHT22;18384;48.860;9.188;2023-06-14T04:02:17;16.90;75.20
31819;DHT22;18384;48.860;9.188;2023-06-14T04:04:44;16.90;75.90
31819;DHT22;18384;48.860;9.188;2023-06-14T04:07:14;16.90;76.00
31819;DHT22;18384;48.860;9.188;2023-06-14T04:09:41;16.90;76.10
31819;DHT22;18384;48.860;9.188;2023-06-14T04:12:08;16.90;74.80
31819;DHT22;18384;48.860;9.188;2023-06-14T04:14:37;16.90;75.10
31819;DHT22;18384;48.860;9.188;2023-06-14T04:17:03;16.90;75.70
31819;DHT22;18384;48.860;9.188;2023-06-14T04:19:29;16.90;75.30
31819;DHT22;18384;48.860;9.188;2023-06-14T04:21:55;17.00;75.30
31819;DHT22;18384;48.860;9.188;2023-06-14T04:24:21;17.00;74.80
31819;DHT22;18384;48.860;9.188;2023-06-14T04:26:48;17.10;74.80
31819;DHT22;18384;48.860;9.188;2023-06-14T04:29:17;17.20;74.60
31819;DHT22;18384;48.860;9.188;2023-06-14T04:31:45;17.30;73.60
31819;DHT22;18384;48.860;9.188;2023-06-14T04:34:12;17.40;73.60
31819;DHT22;18384;48.860;9.188;2023-06-14T04:36:44;17.50;71.50
31819;DHT22;18384;48.860;9.188;2023-06-14T04:39:18;17.80;70.90
31819;DHT22;18384;48.860;9.188;2023-06-14T04:41:46;17.90;70.10
31819;DHT22;18384;48.860;9.188;2023-06-14T04:44:13;18.20;69.60
31819;DHT22;18384;48.860;9.188;2023-06-14T04:46:42;18.50;69.40
31819;DHT22;18384;48.860;9.188;2023-06-14T04:49:17;18.60;68.80
31819;DHT22;18384;48.860;9.188;2023-06-14T04:51:43;18.80;68.40
31819;DHT22;18384;48.860;9.188;2023-06-14T04:54:10;18.80;68.20
31819;DHT22;18384;48.860;9.188;2023-06-14T04:56:40;18.90;68.70
31819;DHT22;18384;48.860;9.188;2023-06-14T04:59:08;19.00;67.80
31819;DHT22;18384;48.860;9.188;2023-06-14T05:01:34;19.00;68.50
31819;DHT22;18384;48.860;9.188;2023-06-14T05:04:00;19.00;68.50
31819;DHT22;18384;48.860;9.188;2023-06-14T05:06:26;18.80;68.60
31819;DHT22;18384;48.860;9.188;2023-06-14T05:08:55;18.80;69.00
31819;DHT22;18384;48.860;9.188;2023-06-14T05:11:21;18.70;69.50
31819;DHT22;18384;48.860;9.188;2023-06-14T05:13:49;18.70;69.30
31819;DHT22;18384;48.860;9.188;2023-06-14T05:16:16;18.80;71.10
31819;DHT22;18384;48.860;9.188;2023-06-14T05:21:30;18.70;68.70
31819;DHT22;18384;48.860;9.188;2023-06-14T05:23:57;18.80;68.20
31819;DHT22;18384;48.860;9.188;2023-06-14T05:26:23;18.70;68.70
31819;DHT22;18384;48.860;9.188;2023-06-14T05:28:54;18.80;68.90
31819;DHT22;18384;48.860;9.188;2023-06-14T05:31:24;18.80;68.20
31819;DHT22;18384;48.860;9.188;2023-06-14T05:33:51;18.80;67.60
31819;DHT22;18384;48.860;9.188;2023-06-14T05:36:18;18.90;67.80
31819;DHT22;18384;48.860;9.188;2023-06-14T05:38:45;18.90;67.80
31819;DHT22;18384;48.860;9.188;2023-06-14T05:41:11;19.00;68.10
31819;DHT22;18384;48.860;9.188;2023-06-14T05:43:37;19.20;67.70
31819;DHT22;18384;48.860;9.188;2023-06-14T05:46:03;19.30;67.20
31819;DHT22;18384;48.860;9.188;2023-06-14T05:48:30;19.50;66.00
31819;DHT22;18384;48.860;9.188;2023-06-14T05:50:56;19.70;65.80
31819;DHT22;18384;48.860;9.188;2023-06-14T05:53:22;20.00;64.70
31819;DHT22;18384;48.860;9.188;2023-06-14T05:55:49;20.40;64.20
31819;DHT22;18384;48.860;9.188;2023-06-14T05:58:17;20.50;64.70
31819;DHT22;18384;48.860;9.188;2023-06-14T06:00:43;20.50;63.80
31819;DHT22;18384;48.860;9.188;2023-06-14T06:03:09;20.70;63.00
31819;DHT22;18384;48.860;9.188;2023-06-14T06:05:36;21.20;62.40
31819;DHT22;18384;48.860;9.188;2023-06-14T06:08:02;21.50;62.40
31819;DHT22;18384;48.860;9.188;2023-06-14T06:10:28;21.60;61.10
31819;DHT22;18384;48.860;9.188;2023-06-14T06:12:54;21.50;60.70
31819;DHT22;18384;48.860;9.188;2023-06-14T06:15:20;21.40;61.50
31819;DHT22;18384;48.860;9.188;2023-06-14T06:17:46;21.20;61.80
31819;DHT22;18384;48.860;9.188;2023-06-14T06:20:12;20.80;62.10
31819;DHT22;18384;48.860;9.188;2023-06-14T06:22:38;20.70;62.20
31819;DHT22;18384;48.860;9.188;2023-06-14T06:25:04;20.60;63.20
31819;DHT22;18384;48.860;9.188;2023-06-14T06:27:31;20.50;62.10
31819;DHT22;18384;48.860;9.188;2023-06-14T06:29:57;20.50;62.90
31819;DHT22;18384;48.860;9.188;2023-06-14T06:32:23;20.50;62.90
31819;DHT22;18384;48.860;9.188;2023-06-14T06:34:50;20.50;63.40
31819;DHT22;18384;48.860;9.188;2023-06-14T06:37:17;20.60;63.90
31819;DHT22;18384;48.860;9.188;2023-06-14T06:39:43;20.60;62.80
31819;DHT22;18384;48.860;9.188;2023-06-14T06:42:09;20.50;62.70
31819;DHT22;18384;48.860;9.188;2023-06-14T06:44:36;20.40;63.30
31819;DHT22;18384;48.860;9.188;2023-06-14T06:47:02;20.40;64.10
31819;DHT22;18384;48.860;9.188;2023-06-14T06:49:28;20.30;64.00
31819;DHT22;18384;48.860;9.188;2023-06-14T06:52:00;21.50;64.70
31819;DHT22;18384;48.860;9.188;2023-06-14T06:54:30;20.30;64.60
31819;DHT22;18384;48.860;9.188;2023-06-14T06:56:56;20.40;64.50
31819;DHT22;18384;48.860;9.188;2023-06-14T06:59:22;20.30;64.70
31819;DHT22;18384;48.860;9.188;2023-06-14T07:01:48;20.30;64.50
31819;DHT22;18384;48.860;9.188;2023-06-14T07:04:15;20.30;64.10
31819;DHT22;18384;48.860;9.188;2023-06-14T07:06:41;20.20;64.40
31819;DHT22;18384;48.860;9.188;2023-06-14T07:09:07;20.40;65.50
31819;DHT22;18384;48.860;9.188;2023-06-14T07:11:38;20.30;64.80
31819;DHT22;18384;48.860;9.188;2023-06-14T07:14:05;20.40;65.50
31819;DHT22;18384;48.860;9.188;2023-06-14T07:16:31;20.40;65.00
31819;DHT22;18384;48.860;9.188;2023-06-14T07:18:57;20.40;64.00
31819;DHT22;18384;48.860;9.188;2023-06-14T07:21:23;20.40;65.20
31819;DHT22;18384;48.860;9.188;2023-06-14T07:23:52;20.30;65.80
31819;DHT22;18384;48.860;9.188;2023-06-14T07:26:18;20.30;66.30
31819;DHT22;18384;48.860;9.188;2023-06-14T07:28:44;20.30;65.70
31819;DHT22;18384;48.860;9.188;2023-06-14T07:31:11;20.30;66.10
31819;DHT22;18384;48.860;9.188;2023-06-14T07:33:38;20.20;66.00
31819;DHT22;18384;48.860;9.188;2023-06-14T07:36:04;20.30;66.40
31819;DHT22;18384;48.860;9.188;2023-06-14T07:38:30;20.30;66.40
31819;DHT22;18384;48.860;9.188;2023-06-14T07:40:56;20.30;67.40
31819;DHT22;18384;48.860;9.188;2023-06-14T07:43:22;20.40;67.10
31819;DHT22;18384;48.860;9.188;2023-06-14T07:45:48;20.50;66.90
31819;DHT22;18384;48.860;9.188;2023-06-14T07:48:14;20.50;65.90
31819;DHT22;18384;48.860;9.188;2023-06-14T07:50:40;20.60;65.80
31819;DHT22;18384;48.860;9.188;2023-06-14T07:53:06;20.60;65.30
31819;DHT22;18384;48.860;9.188;2023-06-14T07:55:32;20.60;65.30
31819;DHT22;18384;48.860;9.188;2023-06-14T07:58:02;20.60;66.80
31819;DHT22;18384;48.860;9.188;2023-06-14T08:00:28;20.80;65.80
31819;DHT22;18384;48.860;9.188;2023-06-14T08:02:55;20.70;64.80
31819;DHT22;18384;48.860;9.188;2023-06-14T08:05:24;20.80;65.40
31819;DHT22;18384;48.860;9.188;2023-06-14T08:07:53;20.90;65.40
31819;DHT22;18384;48.860;9.188;2023-06-14T08:10:20;20.90;65.00
31819;DHT22;18384;48.860;9.188;2023-06-14T08:12:46;20.90;65.50
31819;DHT22;18384;48.860;9.188;2023-06-14T08:15:13;20.90;65.30
31819;DHT22;18384;48.860;9.188;2023-06-14T08:17:39;21.00;65.50
31819;DHT22;18384;48.860;9.188;2023-06-14T08:20:06;21.00;65.10
31819;DHT22;18384;48.860;9.188;2023-06-14T08:22:34;21.10;65.80
31819;DHT22;18384;48.860;9.188;2023-06-14T08:25:01;21.10;65.00
31819;DHT22;18384;48.860;9.188;2023-06-14T08:27:27;21.20;66.70
31819;DHT22;18384;48.860;9.188;2023-06-14T08:29:53;21.30;65.40
31819;DHT22;18384;48.860;9.188;2023-06-14T08:32:19;21.30;65.40
31819;DHT22;18384;48.860;9.188;2023-06-14T08:34:45;21.40;64.80
31819;DHT22;18384;48.860;9.188;2023-06-14T08:37:11;21.30;64.00
31819;DHT22;18384;48.860;9.188;2023-06-14T08:39:37;21.40;64.80
31819;DHT22;18384;48.860;9.188;2023-06-14T08:42:03;21.50;65.60
31819;DHT22;18384;48.860;9.188;2023-06-14T08:44:32;21.60;65.70
31819;DHT22;18384;48.860;9.188;2023-06-14T08:46:59;21.60;65.20
31819;DHT22;18384;48.860;9.188;2023-06-14T08:49:25;21.70;66.20
31819;DHT22;18384;48.860;9.188;2023-06-14T08:51:59;21.70;64.80
31819;DHT22;18384;48.860;9.188;2023-06-14T08:54:29;21.60;64.30
31819;DHT22;18384;48.860;9.188;2023-06-14T08:56:56;21.60;65.00
31819;DHT22;18384;48.860;9.188;2023-06-14T08:59:26;21.60;64.40
31819;DHT22;18384;48.860;9.188;2023-06-14T09:01:52;21.60;64.70
31819;DHT22;18384;48.860;9.188;2023-06-14T09:04:20;21.60;64.40
31819;DHT22;18384;48.860;9.188;2023-06-14T09:06:47;21.70;64.90
31819;DHT22;18384;48.860;9.188;2023-06-14T09:09:19;21.70;64.60
31819;DHT22;18384;48.860;9.188;2023-06-14T09:11:46;21.70;64.80
31819;DHT22;18384;48.860;9.188;2023-06-14T09:14:12;21.80;65.10
31819;DHT22;18384;48.860;9.188;2023-06-14T09:16:38;21.80;64.20
31819;DHT22;18384;48.860;9.188;2023-06-14T09:19:04;21.80;65.30
31819;DHT22;18384;48.860;9.188;2023-06-14T09:21:31;21.90;64.70
31819;DHT22;18384;48.860;9.188;2023-06-14T09:24:01;22.10;64.80
31819;DHT22;18384;48.860;9.188;2023-06-14T09:26:28;22.20;65.70
31819;DHT22;18384;48.860;9.188;2023-06-14T09:28:53;22.30;63.60
31819;DHT22;18384;48.860;9.188;2023-06-14T09:31:21;22.30;64.60
31819;DHT22;18384;48.860;9.188;2023-06-14T09:33:48;22.40;63.80
31819;DHT22;18384;48.860;9.188;2023-06-14T09:36:24;22.40;64.80
31819;DHT22;18384;48.860;9.188;2023-06-14T09:38:51;22.50;63.40
31819;DHT22;18384;48.860;9.188;2023-06-14T09:41:30;22.50;64.10
31819;DHT22;18384;48.860;9.188;2023-06-14T09:43:57;22.70;63.60
31819;DHT22;18384;48.860;9.188;2023-06-14T09:46:29;22.80;64.60
31819;DHT22;18384;48.860;9.188;2023-06-14T09:48:58;22.90;63.20
31819;DHT22;18384;48.860;9.188;2023-06-14T09:51:25;23.00;62.90
31819;DHT22;18384;48.860;9.188;2023-06-14T09:53:52;22.90;62.00
31819;DHT22;18384;48.860;9.188;2023-06-14T09:56:41;23.00;62.60
31819;DHT22;18384;48.860;9.188;2023-06-14T09:59:08;23.00;62.10
31819;DHT22;18384;48.860;9.188;2023-06-14T10:01:36;23.00;62.00
31819;DHT22;18384;48.860;9.188;2023-06-14T10:04:09;23.10;60.90
31819;DHT22;18384;48.860;9.188;2023-06-14T10:06:36;23.20;62.30
31819;DHT22;18384;48.860;9.188;2023-06-14T10:09:03;22.40;60.70
31819;DHT22;18384;48.860;9.188;2023-06-14T10:11:31;23.30;58.30
31819;DHT22;18384;48.860;9.188;2023-06-14T10:13:57;23.40;58.50
31819;DHT22;18384;48.860;9.188;2023-06-14T10:16:33;23.40;58.10
31819;DHT22;18384;48.860;9.188;2023-06-14T10:19:18;23.50;57.90
31819;DHT22;18384;48.860;9.188;2023-06-14T10:21:48;23.50;58.70
31819;DHT22;18384;48.860;9.188;2023-06-14T10:24:32;23.30;58.80
31819;DHT22;18384;48.860;9.188;2023-06-14T10:27:00;23.20;59.00
31819;DHT22;18384;48.860;9.188;2023-06-14T10:29:26;23.00;59.30
31819;DHT22;18384;48.860;9.188;2023-06-14T10:31:57;22.90;59.70
31819;DHT22;18384;48.860;9.188;2023-06-14T10:34:25;22.80;59.50
31819;DHT22;18384;48.860;9.188;2023-06-14T10:37:02;22.80;59.20
31819;DHT22;18384;48.860;9.188;2023-06-14T10:39:41;22.70;57.80
31819;DHT22;18384;48.860;9.188;2023-06-14T10:42:09;22.80;57.40
31819;DHT22;18384;48.860;9.188;2023-06-14T10:44:54;22.90;56.20
31819;DHT22;18384;48.860;9.188;2023-06-14T10:47:22;23.00;55.10
31819;DHT22;18384;48.860;9.188;2023-06-14T10:49:50;23.30;56.60
31819;DHT22;18384;48.860;9.188;2023-06-14T10:52:21;23.60;57.80
31819;DHT22;18384;48.860;9.188;2023-06-14T10:55:01;23.90;55.70
31819;DHT22;18384;48.860;9.188;2023-06-14T10:57:38;24.00;54.50
31819;DHT22;18384;48.860;9.188;2023-06-14T11:00:09;24.00;55.80
31819;DHT22;18384;48.860;9.188;2023-06-14T11:02:45;24.10;55.60
31819;DHT22;18384;48.860;9.188;2023-06-14T11:05:30;24.20;53.70
31819;DHT22;18384;48.860;9.188;2023-06-14T11:08:39;24.10;54.20
31819;DHT22;18384;48.860;9.188;2023-06-14T11:11:33;24.00;53.80
31819;DHT22;18384;48.860;9.188;2023-06-14T11:13:59;23.90;54.40
31819;DHT22;18384;48.860;9.188;2023-06-14T11:16:27;23.90;54.10
31819;DHT22;18384;48.860;9.188;2023-06-14T11:18:53;24.00;55.40
31819;DHT22;18384;48.860;9.188;2023-06-14T11:21:19;24.10;53.90
31819;DHT22;18384;48.860;9.188;2023-06-14T11:23:49;24.10;53.50
31819;DHT22;18384;48.860;9.188;2023-06-14T11:26:24;24.00;53.30
31819;DHT22;18384;48.860;9.188;2023-06-14T11:28:57;23.90;53.70
31819;DHT22;18384;48.860;9.188;2023-06-14T11:31:24;23.90;53.60
31819;DHT22;18384;48.860;9.188;2023-06-14T11:33:51;23.90;53.40
31819;DHT22;18384;48.860;9.188;2023-06-14T11:36:19;23.90;55.10
31819;DHT22;18384;48.860;9.188;2023-06-14T11:38:45;24.00;54.30
31819;DHT22;18384;48.860;9.188;2023-06-14T11:41:11;24.00;53.10
31819;DHT22;18384;48.860;9.188;2023-06-14T11:43:37;24.10;53.50
31819;DHT22;18384;48.860;9.188;2023-06-14T11:46:03;24.00;53.10
31819;DHT22;18384;48.860;9.188;2023-06-14T11:48:38;23.90;53.50
31819;DHT22;18384;48.860;9.188;2023-06-14T11:51:05;23.90;53.00
31819;DHT22;18384;48.860;9.188;2023-06-14T11:53:31;23.90;53.70
31819;DHT22;18384;48.860;9.188;2023-06-14T11:55:58;24.00;52.90
31819;DHT22;18384;48.860;9.188;2023-06-14T11:58:24;24.10;53.20
31819;DHT22;18384;48.860;9.188;2023-06-14T12:00:52;24.10;53.80
31819;DHT22;18384;48.860;9.188;2023-06-14T12:03:22;24.20;54.60
31819;DHT22;18384;48.860;9.188;2023-06-14T12:05:49;24.30;52.90
31819;DHT22;18384;48.860;9.188;2023-06-14T12:08:15;24.30;52.60
31819;DHT22;18384;48.860;9.188;2023-06-14T12:10:42;24.30;53.00
31819;DHT22;18384;48.860;9.188;2023-06-14T12:13:09;24.20;53.50
31819;DHT22;18384;48.860;9.188;2023-06-14T12:15:35;24.10;53.10
31819;DHT22;18384;48.860;9.188;2023-06-14T12:18:01;24.00;53.60
31819;DHT22;18384;48.860;9.188;2023-06-14T12:20:32;23.90;53.20
31819;DHT22;18384;48.860;9.188;2023-06-14T12:22:59;23.90;54.30
31819;DHT22;18384;48.860;9.188;2023-06-14T12:25:33;23.90;53.60
31819;DHT22;18384;48.860;9.188;2023-06-14T12:28:08;24.00;53.80
31819;DHT22;18384;48.860;9.188;2023-06-14T12:30:35;24.10;54.10
31819;DHT22;18384;48.860;9.188;2023-06-14T12:33:02;24.10;53.30
31819;DHT22;18384;48.860;9.188;2023-06-14T12:35:28;24.20;53.50
31819;DHT22;18384;48.860;9.188;2023-06-14T12:37:54;24.20;53.80
31819;DHT22;18384;48.860;9.188;2023-06-14T12:40:20;24.20;53.40
31819;DHT22;18384;48.860;9.188;2023-06-14T12:42:46;24.20;53.60
31819;DHT22;18384;48.860;9.188;2023-06-14T12:45:12;24.20;53.20
31819;DHT22;18384;48.860;9.188;2023-06-14T12:47:38;24.00;53.90
31819;DHT22;18384;48.860;9.188;2023-06-14T12:50:05;23.90;54.40
31819;DHT22;18384;48.860;9.188;2023-06-14T12:52:32;23.90;54.90
31819;DHT22;18384;48.860;9.188;2023-06-14T12:55:04;23.90;54.10
31819;DHT22;18384;48.860;9.188;2023-06-14T12:57:31;23.90;54.70
31819;DHT22;18384;48.860;9.188;2023-06-14T12:59:57;23.80;55.20
31819;DHT22;18384;48.860;9.188;2023-06-14T13:02:23;23.70;54.90
31819;DHT22;18384;48.860;9.188;2023-06-14T13:04:49;23.70;56.20
31819;DHT22;18384;48.860;9.188;2023-06-14T13:07:16;23.80;55.40
31819;DHT22;18384;48.860;9.188;2023-06-14T13:09:42;23.70;54.50
31819;DHT22;18384;48.860;9.188;2023-06-14T13:12:11;23.80;55.80
31819;DHT22;18384;48.860;9.188;2023-06-14T13:14:38;23.80;55.30
31819;DHT22;18384;48.860;9.188;2023-06-14T13:17:06;23.80;54.70
31819;DHT22;18384;48.860;9.188;2023-06-14T13:19:33;24.00;54.80
31819;DHT22;18384;48.860;9.188;2023-06-14T13:21:59;24.00;54.50
31819;DHT22;18384;48.860;9.188;2023-06-14T13:24:25;24.00;54.10
31819;DHT22;18384;48.860;9.188;2023-06-14T13:26:51;24.10;54.80
31819;DHT22;18384;48.860;9.188;2023-06-14T13:29:17;24.20;54.40
31819;DHT22;18384;48.860;9.188;2023-06-14T13:31:43;24.30;54.20
31819;DHT22;18384;48.860;9.188;2023-06-14T13:34:09;24.30;54.40
31819;DHT22;18384;48.860;9.188;2023-06-14T13:36:35;24.30;54.00
31819;DHT22;18384;48.860;9.188;2023-06-14T13:39:01;24.40;54.60
31819;DHT22;18384;48.860;9.188;2023-06-14T13:41:27;24.40;54.00
31819;DHT22;18384;48.860;9.188;2023-06-14T13:43:57;24.40;52.30
31819;DHT22;18384;48.860;9.188;2023-06-14T13:46:24;24.30;52.40
31819;DHT22;18384;48.860;9.188;2023-06-14T13:48:50;24.20;53.80
31819;DHT22;18384;48.860;9.188;2023-06-14T13:51:16;24.20;54.80
31819;DHT22;18384;48.860;9.188;2023-06-14T13:53:45;24.20;54.90
31819;DHT22;18384;48.860;9.188;2023-06-14T13:56:11;24.20;55.10
31819;DHT22;18384;48.860;9.188;2023-06-14T13:58:37;24.00;55.10
31819;DHT22;18384;48.860;9.188;2023-06-14T14:01:03;24.00;56.20
31819;DHT22;18384;48.860;9.188;2023-06-14T14:03:30;23.90;55.00
31819;DHT22;18384;48.860;9.188;2023-06-14T14:05:57;23.90;55.70
31819;DHT22;18384;48.860;9.188;2023-06-14T14:08:23;23.80;55.20
31819;DHT22;18384;48.860;9.188;2023-06-14T14:10:50;23.70;55.60
31819;DHT22;18384;48.860;9.188;2023-06-14T14:13:16;23.70;54.90
31819;DHT22;18384;48.860;9.188;2023-06-14T14:15:42;23.70;54.80
31819;DHT22;18384;48.860;9.188;2023-06-14T14:18:09;23.80;55.10
31819;DHT22;18384;48.860;9.188;2023-06-14T14:20:35;23.90;54.00
31819;DHT22;18384;48.860;9.188;2023-06-14T14:23:01;24.00;55.60
31819;DHT22;18384;48.860;9.188;2023-06-14T14:25:27;24.20;55.20
31819;DHT22;18384;48.860;9.188;2023-06-14T14:27:53;24.40;54.10
31819;DHT22;18384;48.860;9.188;2023-06-14T14:30:19;24.60;55.10
31819;DHT22;18384;48.860;9.188;2023-06-14T14:32:49;24.80;54.40
31819;DHT22;18384;48.860;9.188;2023-06-14T14:35:16;24.80;54.10
31819;DHT22;18384;48.860;9.188;2023-06-14T14:37:43;24.90;54.20
31819;DHT22;18384;48.860;9.188;2023-06-14T14:40:09;24.80;54.40
31819;DHT22;18384;48.860;9.188;2023-06-14T14:42:35;24.80;54.20
31819;DHT22;18384;48.860;9.188;2023-06-14T14:45:02;24.80;54.50
31819;DHT22;18384;48.860;9.188;2023-06-14T14:47:28;24.80;53.80
31819;DHT22;18384;48.860;9.188;2023-06-14T14:49:54;24.70;54.30
31819;DHT22;18384;48.860;9.188;2023-06-14T14:52:20;24.70;53.90
31819;DHT22;18384;48.860;9.188;2023-06-14T14:54:46;24.80;54.20
31819;DHT22;18384;48.860;9.188;2023-06-14T14:57:12;24.80;53.90
31819;DHT22;18384;48.860;9.188;2023-06-14T14:59:38;24.90;54.30
31819;DHT22;18384;48.860;9.188;2023-06-14T15:02:05;25.10;54.00
31819;DHT22;18384;48.860;9.188;2023-06-14T15:04:31;25.20;54.10
31819;DHT22;18384;48.860;9.188;2023-06-14T15:06:57;25.30;53.40
31819;DHT22;18384;48.860;9.188;2023-06-14T15:09:23;25.30;52.90
31819;DHT22;18384;48.860;9.188;2023-06-14T15:11:49;25.50;53.20
31819;DHT22;18384;48.860;9.188;2023-06-14T15:14:15;25.40;52.80
31819;DHT22;18384;48.860;9.188;2023-06-14T15:16:41;25.30;52.70
31819;DHT22;18384;48.860;9.188;2023-06-14T15:19:07;25.20;53.10
31819;DHT22;18384;48.860;9.188;2023-06-14T15:21:33;25.00;53.30
31819;DHT22;18384;48.860;9.188;2023-06-14T15:23:59;24.80;53.80
31819;DHT22;18384;48.860;9.188;2023-06-14T15:26:24;24.70;53.50
31819;DHT22;18384;48.860;9.188;2023-06-14T15:28:51;24.60;53.90
31819;DHT22;18384;48.860;9.188;2023-06-14T15:31:17;24.40;54.00
31819;DHT22;18384;48.860;9.188;2023-06-14T15:33:43;24.30;53.80
31819;DHT22;18384;48.860;9.188;2023-06-14T15:36:09;24.30;55.00
31819;DHT22;18384;48.860;9.188;2023-06-14T15:38:35;24.20;54.60
31819;DHT22;18384;48.860;9.188;2023-06-14T15:41:01;24.20;55.70